sensor_id;sensor_type;location;lat;lon;timestamp;temperature;humidity
47857;DHT22;33618;49.972;8.242;2023-02-04T00:20:06;8.70;99.90
47857;DHT22;33618;49.972;8.242;2023-02-04T00:22:33;8.70;99.90
47857;DHT22;33618;49.972;8.242;2023-02-04T00:25:01;8.60;99.90
47857;DHT22;33618;49.972;8.242;2023-02-04T00:27:27;8.60;99.90
47857;DHT22;33618;49.972;8.242;2023-02-04T00:29:55;8.60;99.90
47857;DHT22;33618;49.972;8.242;2023-02-04T00:32:23;8.60;99.90
47857;DHT22;33618;49.972;8.242;2023-02-04T00:34:50;8.60;99.90
47857;DHT22;33618;49.972;8.242;2023-02-04T00:37:19;8.70;99.90
47857;DHT22;33618;49.972;8.242;2023-02-04T00:39:46;8.70;99.90
47857;DHT22;33618;49.972;8.242;2023-02-04T00:42:13;8.70;99.90
47857;DHT22;33618;49.972;8.242;2023-02-04T00:44:40;8.70;99.90
47857;DHT22;33618;49.972;8.242;2023-02-04T00:47:07;8.60;99.90
47857;DHT22;33618;49.972;8.242;2023-02-04T00:49:34;8.60;99.90
47857;DHT22;33618;49.972;8.242;2023-02-04T00:52:01;8.60;99.90
47857;DHT22;33618;49.972;8.242;2023-02-04T00:54:28;8.60;99.90
47857;DHT22;33618;49.972;8.242;2023-02-04T00:56:55;8.60;99.90
47857;DHT22;33618;49.972;8.242;2023-02-04T00:59:22;8.60;99.90
47857;DHT22;33618;49.972;8.242;2023-02-04T01:01:49;8.60;99.90
47857;DHT22;33618;49.972;8.242;2023-02-04T01:04:17;8.50;99.90
47857;DHT22;33618;49.972;8.242;2023-02-04T01:06:44;8.50;99.90
47857;DHT22;33618;49.972;8.242;2023-02-04T01:09:11;8.50;99.90
47857;DHT22;33618;49.972;8.242;2023-02-04T01:11:37;8.50;99.90
47857;DHT22;33618;49.972;8.242;2023-02-04T01:14:04;8.50;99.90
47857;DHT22;33618;49.972;8.242;2023-02-04T01:16:31;8.50;99.90
47857;DHT22;33618;49.972;8.242;2023-02-04T01:18:58;8.50;99.90
47857;DHT22;33618;49.972;8.242;2023-02-04T01:21:26;8.50;99.90
47857;DHT22;33618;49.972;8.242;2023-02-04T01:23:53;8.50;99.90
47857;DHT22;33618;49.972;8.242;2023-02-04T01:26:19;8.50;99.90
47857;DHT22;33618;49.972;8.242;2023-02-04T01:28:47;8.50;99.90
47857;DHT22;33618;49.972;8.242;2023-02-04T01:31:14;8.50;99.90
47857;DHT22;33618;49.972;8.242;2023-02-04T01:33:41;8.50;99.90
47857;DHT22;33618;49.972;8.242;2023-02-04T01:36:08;8.40;99.90
47857;DHT22;33618;49.972;8.242;2023-02-04T01:38:36;8.40;99.90
47857;DHT22;33618;49.972;8.242;2023-02-04T01:41:04;8.40;99.90
47857;DHT22;33618;49.972;8.242;2023-02-04T01:43:32;8.40;99.90
47857;DHT22;33618;49.972;8.242;2023-02-04T01:45:59;8.40;99.90
47857;DHT22;33618;49.972;8.242;2023-02-04T01:48:28;8.40;99.90
47857;DHT22;33618;49.972;8.242;2023-02-04T01:51:05;8.40;99.90
47857;DHT22;33618;49.972;8.242;2023-02-04T01:53:34;8.40;99.90
47857;DHT22;33618;49.972;8.242;2023-02-04T01:56:14;8.40;99.90
47857;DHT22;33618;49.972;8.242;2023-02-04T01:58:41;8.40;99.90
47857;DHT22;33618;49.972;8.242;2023-02-04T02:01:32;8.40;99.90
47857;DHT22;33618;49.972;8.242;2023-02-04T02:03:58;8.40;99.90
47857;DHT22;33618;49.972;8.242;2023-02-04T02:06:29;8.30;99.90
47857;DHT22;33618;49.972;8.242;2023-02-04T02:08:57;8.20;99.90
47857;DHT22;33618;49.972;8.242;2023-02-04T02:11:25;8.20;99.90
47857;DHT22;33618;49.972;8.242;2023-02-04T02:13:52;8.20;99.90
47857;DHT22;33618;49.972;8.242;2023-02-04T02:16:20;8.20;99.90
47857;DHT22;33618;49.972;8.242;2023-02-04T02:18:48;8.20;99.90
47857;DHT22;33618;49.972;8.242;2023-02-04T02:21:20;8.20;99.90
47857;DHT22;33618;49.972;8.242;2023-02-04T02:23:52;8.20;99.90
47857;DHT22;33618;49.972;8.242;2023-02-04T02:26:21;8.20;99.90
47857;DHT22;33618;49.972;8.242;2023-02-04T02:28:49;8.20;99.90
47857;DHT22;33618;49.972;8.242;2023-02-04T02:31:18;8.20;99.90
47857;DHT22;33618;49.972;8.242;2023-02-04T02:33:47;8.30;99.90
47857;DHT22;33618;49.972;8.242;2023-02-04T02:36:14;8.30;99.90
47857;DHT22;33618;49.972;8.242;2023-02-04T02:38:41;8.30;99.90
47857;DHT22;33618;49.972;8.242;2023-02-04T02:41:08;8.30;99.90
47857;DHT22;33618;49.972;8.242;2023-02-04T02:43:37;8.20;99.90
47857;DHT22;33618;49.972;8.242;2023-02-04T02:46:04;8.20;99.90
47857;DHT22;33618;49.972;8.242;2023-02-04T02:48:32;8.20;99.90
47857;DHT22;33618;49.972;8.242;2023-02-04T02:50:59;8.20;99.90
47857;DHT22;33618;49.972;8.242;2023-02-04T02:53:26;8.20;99.90
47857;DHT22;33618;49.972;8.242;2023-02-04T02:55:53;8.20;99.90
47857;DHT22;33618;49.972;8.242;2023-02-04T02:58:25;8.20;99.90
47857;DHT22;33618;49.972;8.242;2023-02-04T03:00:54;8.10;99.90
47857;DHT22;33618;49.972;8.242;2023-02-04T03:03:26;8.10;99.90
47857;DHT22;33618;49.972;8.242;2023-02-04T03:05:58;8.10;99.90
47857;DHT22;33618;49.972;8.242;2023-02-04T03:08:27;8.10;99.90
47857;DHT22;33618;49.972;8.242;2023-02-04T03:10:54;8.10;99.90
47857;DHT22;33618;49.972;8.242;2023-02-04T03:13:21;8.10;99.90
47857;DHT22;33618;49.972;8.242;2023-02-04T03:15:49;8.10;99.90
47857;DHT22;33618;49.972;8.242;2023-02-04T03:18:18;8.10;99.90
47857;DHT22;33618;49.972;8.242;2023-02-04T03:20:48;8.00;99.90
47857;DHT22;33618;49.972;8.242;2023-02-04T03:23:17;8.10;99.90
47857;DHT22;33618;49.972;8.242;2023-02-04T03:25:44;8.10;99.90
47857;DHT22;33618;49.972;8.242;2023-02-04T03:28:12;8.10;99.90
47857;DHT22;33618;49.972;8.242;2023-02-04T03:30:39;8.10;99.90
47857;DHT22;33618;49.972;8.242;2023-02-04T03:33:06;8.00;99.90
47857;DHT22;33618;49.972;8.242;2023-02-04T03:35:33;8.00;99.90
47857;DHT22;33618;49.972;8.242;2023-02-04T03:38:00;8.00;99.90
47857;DHT22;33618;49.972;8.242;2023-02-04T03:40:27;8.00;99.90
47857;DHT22;33618;49.972;8.242;2023-02-04T03:42:56;8.00;99.90
47857;DHT22;33618;49.972;8.242;2023-02-04T03:45:23;8.00;99.90
47857;DHT22;33618;49.972;8.242;2023-02-04T03:47:52;7.90;99.90
47857;DHT22;33618;49.972;8.242;2023-02-04T03:50:19;8.00;99.90
47857;DHT22;33618;49.972;8.242;2023-02-04T03:52:46;8.00;99.90
47857;DHT22;33618;49.972;8.242;2023-02-04T03:55:14;8.00;99.90
47857;DHT22;33618;49.972;8.242;2023-02-04T03:57:41;8.00;99.90
47857;DHT22;33618;49.972;8.242;2023-02-04T04:00:09;7.90;99.90
47857;DHT22;33618;49.972;8.242;2023-02-04T04:02:37;7.90;99.90
47857;DHT22;33618;49.972;8.242;2023-02-04T04:05:04;7.90;99.90
47857;DHT22;33618;49.972;8.242;2023-02-04T04:07:31;7.90;99.90
47857;DHT22;33618;49.972;8.242;2023-02-04T04:09:58;7.90;99.90
47857;DHT22;33618;49.972;8.242;2023-02-04T04:12:25;7.90;99.90
47857;DHT22;33618;49.972;8.242;2023-02-04T04:14:52;7.90;99.90
47857;DHT22;33618;49.972;8.242;2023-02-04T04:17:19;7.90;99.90
47857;DHT22;33618;49.972;8.242;2023-02-04T04:19:47;7.90;99.90
47857;DHT22;33618;49.972;8.242;2023-02-04T04:22:15;7.90;99.90
47857;DHT22;33618;49.972;8.242;2023-02-04T04:24:42;7.80;99.90
47857;DHT22;33618;49.972;8.242;2023-02-04T04:27:09;7.80;99.90
47857;DHT22;33618;49.972;8.242;2023-02-04T04:29:36;7.80;99.90
47857;DHT22;33618;49.972;8.242;2023-02-04T04:32:02;7.80;99.90
47857;DHT22;33618;49.972;8.242;2023-02-04T04:34:31;7.80;99.90
47857;DHT22;33618;49.972;8.242;2023-02-04T04:36:57;7.80;99.90
47857;DHT22;33618;49.972;8.242;2023-02-04T04:39:24;7.70;99.90
47857;DHT22;33618;49.972;8.242;2023-02-04T04:41:52;7.70;99.90
47857;DHT22;33618;49.972;8.242;2023-02-04T04:44:19;7.70;99.90
47857;DHT22;33618;49.972;8.242;2023-02-04T04:46:46;7.70;99.90
47857;DHT22;33618;49.972;8.242;2023-02-04T04:49:13;7.70;99.90
47857;DHT22;33618;49.972;8.242;2023-02-04T04:51:39;7.70;99.90
47857;DHT22;33618;49.972;8.242;2023-02-04T04:54:06;7.60;99.90
47857;DHT22;33618;49.972;8.242;2023-02-04T04:56:33;7.60;99.90
47857;DHT22;33618;49.972;8.242;2023-02-04T04:59:00;7.60;99.90
47857;DHT22;33618;49.972;8.242;2023-02-04T05:01:28;7.60;99.90
47857;DHT22;33618;49.972;8.242;2023-02-04T05:03:55;7.60;99.90
47857;DHT22;33618;49.972;8.242;2023-02-04T05:06:22;7.60;99.90
47857;DHT22;33618;49.972;8.242;2023-02-04T05:08:51;7.60;99.90
47857;DHT22;33618;49.972;8.242;2023-02-04T05:11:19;7.60;99.90
47857;DHT22;33618;49.972;8.242;2023-02-04T05:13:47;7.60;99.90
47857;DHT22;33618;49.972;8.242;2023-02-04T05:16:14;7.60;99.90
47857;DHT22;33618;49.972;8.242;2023-02-04T05:18:42;7.60;99.90
47857;DHT22;33618;49.972;8.242;2023-02-04T05:21:09;7.50;99.90
47857;DHT22;33618;49.972;8.242;2023-02-04T05:23:36;7.50;99.90
47857;DHT22;33618;49.972;8.242;2023-02-04T05:26:02;7.50;99.90
47857;DHT22;33618;49.972;8.242;2023-02-04T05:28:29;7.50;99.90
47857;DHT22;33618;49.972;8.242;2023-02-04T05:30:56;7.50;99.90
47857;DHT22;33618;49.972;8.242;2023-02-04T05:33:23;7.50;99.90
47857;DHT22;33618;49.972;8.242;2023-02-04T05:35:50;7.50;99.90
47857;DHT22;33618;49.972;8.242;2023-02-04T05:38:17;7.50;99.90
47857;DHT22;33618;49.972;8.242;2023-02-04T05:40:44;7.50;99.90
47857;DHT22;33618;49.972;8.242;2023-02-04T05:43:11;7.50;99.90
47857;DHT22;33618;49.972;8.242;2023-02-04T05:45:38;7.50;99.90
47857;DHT22;33618;49.972;8.242;2023-02-04T05:48:05;7.40;99.90
47857;DHT22;33618;49.972;8.242;2023-02-04T05:50:32;7.40;99.90
47857;DHT22;33618;49.972;8.242;2023-02-04T05:52:59;7.40;99.90
47857;DHT22;33618;49.972;8.242;2023-02-04T05:55:26;7.40;99.90
47857;DHT22;33618;49.972;8.242;2023-02-04T05:57:53;7.40;99.90
47857;DHT22;33618;49.972;8.242;2023-02-04T06:00:20;7.40;99.90
47857;DHT22;33618;49.972;8.242;2023-02-04T06:02:47;7.40;99.90
47857;DHT22;33618;49.972;8.242;2023-02-04T06:05:14;7.40;99.90
47857;DHT22;33618;49.972;8.242;2023-02-04T06:07:41;7.40;99.90
47857;DHT22;33618;49.972;8.242;2023-02-04T06:10:09;7.30;99.90
47857;DHT22;33618;49.972;8.242;2023-02-04T06:12:36;7.40;99.90
47857;DHT22;33618;49.972;8.242;2023-02-04T06:15:03;7.30;99.90
47857;DHT22;33618;49.972;8.242;2023-02-04T06:17:31;7.30;99.90
47857;DHT22;33618;49.972;8.242;2023-02-04T06:19:58;7.30;99.90
47857;DHT22;33618;49.972;8.242;2023-02-04T06:22:25;7.30;99.90
47857;DHT22;33618;49.972;8.242;2023-02-04T06:24:52;7.30;99.90
47857;DHT22;33618;49.972;8.242;2023-02-04T06:27:19;7.30;99.90
47857;DHT22;33618;49.972;8.242;2023-02-04T06:29:49;7.30;99.90
47857;DHT22;33618;49.972;8.242;2023-02-04T06:32:17;7.30;99.90
47857;DHT22;33618;49.972;8.242;2023-02-04T06:34:45;7.20;99.90
47857;DHT22;33618;49.972;8.242;2023-02-04T06:37:12;7.30;99.90
47857;DHT22;33618;49.972;8.242;2023-02-04T06:39:39;7.20;99.90
47857;DHT22;33618;49.972;8.242;2023-02-04T06:42:06;7.20;99.90
47857;DHT22;33618;49.972;8.242;2023-02-04T06:44:33;7.30;99.90
47857;DHT22;33618;49.972;8.242;2023-02-04T06:47:00;7.30;99.90
47857;DHT22;33618;49.972;8.242;2023-02-04T06:49:27;7.30;99.90
47857;DHT22;33618;49.972;8.242;2023-02-04T06:51:53;7.30;99.90
47857;DHT22;33618;49.972;8.242;2023-02-04T06:54:21;7.30;99.90
47857;DHT22;33618;49.972;8.242;2023-02-04T06:56:48;7.30;99.90
47857;DHT22;33618;49.972;8.242;2023-02-04T06:59:15;7.30;99.90
47857;DHT22;33618;49.972;8.242;2023-02-04T07:01:42;7.40;99.90
47857;DHT22;33618;49.972;8.242;2023-02-04T07:04:09;7.40;99.90
47857;DHT22;33618;49.972;8.242;2023-02-04T07:06:36;7.40;99.90
47857;DHT22;33618;49.972;8.242;2023-02-04T07:09:03;7.40;99.90
47857;DHT22;33618;49.972;8.242;2023-02-04T07:11:30;7.40;99.90
47857;DHT22;33618;49.972;8.242;2023-02-04T07:13:57;7.40;99.90
47857;DHT22;33618;49.972;8.242;2023-02-04T07:16:24;7.40;99.90
47857;DHT22;33618;49.972;8.242;2023-02-04T07:18:51;7.50;99.90
47857;DHT22;33618;49.972;8.242;2023-02-04T07:21:18;7.40;99.90
47857;DHT22;33618;49.972;8.242;2023-02-04T07:23:45;7.50;99.90
47857;DHT22;33618;49.972;8.242;2023-02-04T07:26:12;7.50;99.90
47857;DHT22;33618;49.972;8.242;2023-02-04T07:28:39;7.50;99.90
47857;DHT22;33618;49.972;8.242;2023-02-04T07:31:07;7.40;99.90
47857;DHT22;33618;49.972;8.242;2023-02-04T07:33:34;7.40;99.90
47857;DHT22;33618;49.972;8.242;2023-02-04T07:36:01;7.40;99.90
47857;DHT22;33618;49.972;8.242;2023-02-04T07:38:28;7.40;99.90
47857;DHT22;33618;49.972;8.242;2023-02-04T07:40:55;7.40;99.90
47857;DHT22;33618;49.972;8.242;2023-02-04T07:43:22;7.40;99.90
47857;DHT22;33618;49.972;8.242;2023-02-04T07:45:49;7.40;99.90
47857;DHT22;33618;49.972;8.242;2023-02-04T07:48:16;7.40;99.90
47857;DHT22;33618;49.972;8.242;2023-02-04T07:50:43;7.40;99.90
47857;DHT22;33618;49.972;8.242;2023-02-04T07:53:11;7.50;99.90
47857;DHT22;33618;49.972;8.242;2023-02-04T07:55:37;7.50;99.90
47857;DHT22;33618;49.972;8.242;2023-02-04T07:58:05;7.50;99.90
47857;DHT22;33618;49.972;8.242;2023-02-04T08:00:32;7.50;99.90
47857;DHT22;33618;49.972;8.242;2023-02-04T08:02:59;7.50;99.90
47857;DHT22;33618;49.972;8.242;2023-02-04T08:05:26;7.50;99.90
47857;DHT22;33618;49.972;8.242;2023-02-04T08:07:53;7.50;99.90
47857;DHT22;33618;49.972;8.242;2023-02-04T08:10:20;7.60;99.90
47857;DHT22;33618;49.972;8.242;2023-02-04T08:12:47;7.50;99.90
47857;DHT22;33618;49.972;8.242;2023-02-04T08:15:14;7.50;99.90
47857;DHT22;33618;49.972;8.242;2023-02-04T08:17:41;7.60;99.90
47857;DHT22;33618;49.972;8.242;2023-02-04T08:20:09;7.70;99.90
47857;DHT22;33618;49.972;8.242;2023-02-04T08:22:36;7.70;99.90
47857;DHT22;33618;49.972;8.242;2023-02-04T08:25:04;7.70;99.90
47857;DHT22;33618;49.972;8.242;2023-02-04T08:27:31;7.70;99.90
47857;DHT22;33618;49.972;8.242;2023-02-04T08:29:58;7.80;99.90
47857;DHT22;33618;49.972;8.242;2023-02-04T08:32:25;7.90;99.90
47857;DHT22;33618;49.972;8.242;2023-02-04T08:34:53;7.90;99.90
47857;DHT22;33618;49.972;8.242;2023-02-04T08:37:20;8.00;99.90
47857;DHT22;33618;49.972;8.242;2023-02-04T08:39:47;8.00;99.90
47857;DHT22;33618;49.972;8.242;2023-02-04T08:42:15;8.20;99.90
47857;DHT22;33618;49.972;8.242;2023-02-04T08:44:42;8.20;99.90
47857;DHT22;33618;49.972;8.242;2023-02-04T08:47:09;8.30;99.90
47857;DHT22;33618;49.972;8.242;2023-02-04T08:49:36;8.40;99.90
47857;DHT22;33618;49.972;8.242;2023-02-04T08:52:03;8.50;99.90
47857;DHT22;33618;49.972;8.242;2023-02-04T08:54:33;8.60;99.90
47857;DHT22;33618;49.972;8.242;2023-02-04T08:57:00;8.70;99.90
47857;DHT22;33618;49.972;8.242;2023-02-04T08:59:28;8.70;99.90
47857;DHT22;33618;49.972;8.242;2023-02-04T09:01:55;8.70;99.90
47857;DHT22;33618;49.972;8.242;2023-02-04T09:04:22;8.70;99.90
47857;DHT22;33618;49.972;8.242;2023-02-04T09:06:50;8.70;99.90
47857;DHT22;33618;49.972;8.242;2023-02-04T09:09:17;8.80;99.90
47857;DHT22;33618;49.972;8.242;2023-02-04T09:11:48;8.80;99.90
47857;DHT22;33618;49.972;8.242;2023-02-04T09:14:15;8.80;99.90
47857;DHT22;33618;49.972;8.242;2023-02-04T09:16:42;8.70;99.90
47857;DHT22;33618;49.972;8.242;2023-02-04T09:19:09;8.70;99.90
47857;DHT22;33618;49.972;8.242;2023-02-04T09:21:38;8.60;99.90
47857;DHT22;33618;49.972;8.242;2023-02-04T09:24:05;8.60;99.90
47857;DHT22;33618;49.972;8.242;2023-02-04T09:26:32;8.60;99.90
47857;DHT22;33618;49.972;8.242;2023-02-04T09:28:59;8.70;99.90
47857;DHT22;33618;49.972;8.242;2023-02-04T09:31:26;8.90;99.90
47857;DHT22;33618;49.972;8.242;2023-02-04T09:33:53;9.00;99.90
47857;DHT22;33618;49.972;8.242;2023-02-04T09:36:20;9.30;99.90
47857;DHT22;33618;49.972;8.242;2023-02-04T09:38:47;9.40;99.90
47857;DHT22;33618;49.972;8.242;2023-02-04T09:41:14;9.60;99.90
47857;DHT22;33618;49.972;8.242;2023-02-04T09:43:43;9.40;99.90
47857;DHT22;33618;49.972;8.242;2023-02-04T09:46:29;9.50;99.90
47857;DHT22;33618;49.972;8.242;2023-02-04T09:49:00;9.50;99.90
47857;DHT22;33618;49.972;8.242;2023-02-04T09:51:32;9.60;99.90
47857;DHT22;33618;49.972;8.242;2023-02-04T09:54:11;9.60;99.90
47857;DHT22;33618;49.972;8.242;2023-02-04T09:56:39;9.80;99.90
47857;DHT22;33618;49.972;8.242;2023-02-04T09:59:16;9.90;99.90
47857;DHT22;33618;49.972;8.242;2023-02-04T10:01:44;9.80;99.90
47857;DHT22;33618;49.972;8.242;2023-02-04T10:04:13;9.70;99.90
47857;DHT22;33618;49.972;8.242;2023-02-04T10:06:41;9.60;99.90
47857;DHT22;33618;49.972;8.242;2023-02-04T10:09:13;9.60;99.90
47857;DHT22;33618;49.972;8.242;2023-02-04T10:11:42;9.60;99.90
47857;DHT22;33618;49.972;8.242;2023-02-04T10:14:17;9.50;99.90
47857;DHT22;33618;49.972;8.242;2023-02-04T10:16:58;9.50;99.90
47857;DHT22;33618;49.972;8.242;2023-02-04T10:19:27;9.50;99.90
47857;DHT22;33618;49.972;8.242;2023-02-04T10:21:56;9.40;99.90
47857;DHT22;33618;49.972;8.242;2023-02-04T10:24:25;9.40;99.90
47857;DHT22;33618;49.972;8.242;2023-02-04T10:27:07;9.50;99.90
47857;DHT22;33618;49.972;8.242;2023-02-04T10:29:34;9.60;99.90
47857;DHT22;33618;49.972;8.242;2023-02-04T10:32:01;9.80;99.90
47857;DHT22;33618;49.972;8.242;2023-02-04T10:34:36;9.90;99.90
47857;DHT22;33618;49.972;8.242;2023-02-04T10:37:18;10.00;99.90
47857;DHT22;33618;49.972;8.242;2023-02-04T10:39:45;10.00;99.90
47857;DHT22;33618;49.972;8.242;2023-02-04T10:42:23;10.30;99.90
47857;DHT22;33618;49.972;8.242;2023-02-04T10:44:50;10.30;99.60
47857;DHT22;33618;49.972;8.242;2023-02-04T10:47:23;10.30;98.70
47857;DHT22;33618;49.972;8.242;2023-02-04T10:52:19;10.50;98.90
47857;DHT22;33618;49.972;8.242;2023-02-04T10:54:47;10.50;99.00
47857;DHT22;33618;49.972;8.242;2023-02-04T10:57:21;10.70;98.80
47857;DHT22;33618;49.972;8.242;2023-02-04T11:00:00;10.60;98.40
47857;DHT22;33618;49.972;8.242;2023-02-04T11:02:42;10.50;97.10
47857;DHT22;33618;49.972;8.242;2023-02-04T11:05:17;10.50;98.60
47857;DHT22;33618;49.972;8.242;2023-02-04T11:07:45;10.50;97.80
47857;DHT22;33618;49.972;8.242;2023-02-04T11:10:15;10.60;97.80
47857;DHT22;33618;49.972;8.242;2023-02-04T11:12:58;10.70;98.10
47857;DHT22;33618;49.972;8.242;2023-02-04T11:15:45;10.70;97.70
47857;DHT22;33618;49.972;8.242;2023-02-04T11:20:50;10.50;97.70
47857;DHT22;33618;49.972;8.242;2023-02-04T11:26:09;10.30;98.60
47857;DHT22;33618;49.972;8.242;2023-02-04T11:33:46;10.10;99.60
47857;DHT22;33618;49.972;8.242;2023-02-04T11:36:15;10.00;99.70
47857;DHT22;33618;49.972;8.242;2023-02-04T11:38:47;9.90;99.80
47857;DHT22;33618;49.972;8.242;2023-02-04T11:41:23;10.10;99.90
47857;DHT22;33618;49.972;8.242;2023-02-04T11:43:56;10.10;99.90
47857;DHT22;33618;49.972;8.242;2023-02-04T11:46:25;10.20;99.90
47857;DHT22;33618;49.972;8.242;2023-02-04T11:48:55;10.40;99.90
47857;DHT22;33618;49.972;8.242;2023-02-04T11:51:29;10.60;99.60
47857;DHT22;33618;49.972;8.242;2023-02-04T11:53:56;10.60;99.90
47857;DHT22;33618;49.972;8.242;2023-02-04T11:56:27;10.60;99.90
47857;DHT22;33618;49.972;8.242;2023-02-04T11:58:56;10.70;99.90
47857;DHT22;33618;49.972;8.242;2023-02-04T12:01:29;10.80;99.30
47857;DHT22;33618;49.972;8.242;2023-02-04T12:04:03;11.00;99.00
47857;DHT22;33618;49.972;8.242;2023-02-04T12:06:32;11.20;97.80
47857;DHT22;33618;49.972;8.242;2023-02-04T12:09:28;11.50;96.90
47857;DHT22;33618;49.972;8.242;2023-02-04T12:11:58;11.80;95.80
47857;DHT22;33618;49.972;8.242;2023-02-04T12:14:35;12.00;95.30
47857;DHT22;33618;49.972;8.242;2023-02-04T12:17:15;12.00;94.90
47857;DHT22;33618;49.972;8.242;2023-02-04T12:19:43;12.20;94.20
47857;DHT22;33618;49.972;8.242;2023-02-04T12:22:09;12.30;93.90
47857;DHT22;33618;49.972;8.242;2023-02-04T12:24:36;12.60;93.80
47857;DHT22;33618;49.972;8.242;2023-02-04T12:27:03;12.90;92.90
47857;DHT22;33618;49.972;8.242;2023-02-04T12:29:30;13.10;92.30
47857;DHT22;33618;49.972;8.242;2023-02-04T12:31:57;13.00;92.10
47857;DHT22;33618;49.972;8.242;2023-02-04T12:34:24;13.10;92.00
47857;DHT22;33618;49.972;8.242;2023-02-04T12:36:51;13.40;91.60
47857;DHT22;33618;49.972;8.242;2023-02-04T12:39:18;13.70;90.90
47857;DHT22;33618;49.972;8.242;2023-02-04T12:41:45;14.10;90.40
47857;DHT22;33618;49.972;8.242;2023-02-04T12:44:12;14.20;89.20
47857;DHT22;33618;49.972;8.242;2023-02-04T12:46:39;14.20;88.80
47857;DHT22;33618;49.972;8.242;2023-02-04T12:49:05;13.90;88.00
47857;DHT22;33618;49.972;8.242;2023-02-04T12:51:35;13.70;89.00
47857;DHT22;33618;49.972;8.242;2023-02-04T12:54:02;13.40;89.20
47857;DHT22;33618;49.972;8.242;2023-02-04T12:56:29;13.60;89.60
47857;DHT22;33618;49.972;8.242;2023-02-04T12:58:56;14.00;89.10
47857;DHT22;33618;49.972;8.242;2023-02-04T13:01:23;14.20;88.80
47857;DHT22;33618;49.972;8.242;2023-02-04T13:03:50;14.50;89.20
47857;DHT22;33618;49.972;8.242;2023-02-04T13:06:17;15.10;87.50
47857;DHT22;33618;49.972;8.242;2023-02-04T13:08:44;15.70;86.10
47857;DHT22;33618;49.972;8.242;2023-02-04T13:11:11;16.10;83.60
47857;DHT22;33618;49.972;8.242;2023-02-04T13:13:38;16.30;83.50
47857;DHT22;33618;49.972;8.242;2023-02-04T13:16:06;16.60;82.80
47857;DHT22;33618;49.972;8.242;2023-02-04T13:18:32;16.50;81.60
47857;DHT22;33618;49.972;8.242;2023-02-04T13:21:00;15.80;81.80
47857;DHT22;33618;49.972;8.242;2023-02-04T13:23:31;15.70;81.10
47857;DHT22;33618;49.972;8.242;2023-02-04T13:25:58;15.40;82.70
47857;DHT22;33618;49.972;8.242;2023-02-04T13:28:25;15.00;83.00
47857;DHT22;33618;49.972;8.242;2023-02-04T13:30:52;14.60;83.80
47857;DHT22;33618;49.972;8.242;2023-02-04T13:33:19;14.50;84.70
47857;DHT22;33618;49.972;8.242;2023-02-04T13:35:46;14.80;84.70
47857;DHT22;33618;49.972;8.242;2023-02-04T13:38:14;15.20;83.00
47857;DHT22;33618;49.972;8.242;2023-02-04T13:40:42;15.50;82.00
47857;DHT22;33618;49.972;8.242;2023-02-04T13:43:09;15.80;82.40
47857;DHT22;33618;49.972;8.242;2023-02-04T13:45:40;15.90;82.10
47857;DHT22;33618;49.972;8.242;2023-02-04T13:48:14;15.70;81.40
47857;DHT22;33618;49.972;8.242;2023-02-04T13:50:42;15.30;81.80
47857;DHT22;33618;49.972;8.242;2023-02-04T13:53:09;15.40;82.00
47857;DHT22;33618;49.972;8.242;2023-02-04T13:55:36;15.10;83.60
47857;DHT22;33618;49.972;8.242;2023-02-04T13:58:05;15.00;82.80
47857;DHT22;33618;49.972;8.242;2023-02-04T14:00:33;14.70;83.70
47857;DHT22;33618;49.972;8.242;2023-02-04T14:03:00;14.30;84.10
47857;DHT22;33618;49.972;8.242;2023-02-04T14:05:27;14.10;85.60
47857;DHT22;33618;49.972;8.242;2023-02-04T14:07:54;14.30;86.50
47857;DHT22;33618;49.972;8.242;2023-02-04T14:10:22;14.10;85.00
47857;DHT22;33618;49.972;8.242;2023-02-04T14:12:51;13.80;85.80
47857;DHT22;33618;49.972;8.242;2023-02-04T14:15:18;13.80;86.80
47857;DHT22;33618;49.972;8.242;2023-02-04T14:17:45;14.30;86.30
47857;DHT22;33618;49.972;8.242;2023-02-04T14:20:12;14.50;85.10
47857;DHT22;33618;49.972;8.242;2023-02-04T14:22:39;15.30;85.40
47857;DHT22;33618;49.972;8.242;2023-02-04T14:25:06;15.80;83.30
47857;DHT22;33618;49.972;8.242;2023-02-04T14:27:35;16.10;82.90
47857;DHT22;33618;49.972;8.242;2023-02-04T14:30:34;16.00;82.80
47857;DHT22;33618;49.972;8.242;2023-02-04T14:33:02;15.30;81.80
47857;DHT22;33618;49.972;8.242;2023-02-04T14:35:31;14.80;83.90
47857;DHT22;33618;49.972;8.242;2023-02-04T14:37:58;14.60;84.20
47857;DHT22;33618;49.972;8.242;2023-02-04T14:40:25;14.20;83.80
47857;DHT22;33618;49.972;8.242;2023-02-04T14:42:52;14.30;85.30
47857;DHT22;33618;49.972;8.242;2023-02-04T14:45:19;14.00;85.80
47857;DHT22;33618;49.972;8.242;2023-02-04T14:47:46;14.10;86.70
47857;DHT22;33618;49.972;8.242;2023-02-04T14:52:42;14.20;87.50
47857;DHT22;33618;49.972;8.242;2023-02-04T14:55:09;14.40;86.00
47857;DHT22;33618;49.972;8.242;2023-02-04T14:57:38;15.00;85.50
47857;DHT22;33618;49.972;8.242;2023-02-04T15:00:06;15.00;83.60
47857;DHT22;33618;49.972;8.242;2023-02-04T15:02:33;15.00;85.20
47857;DHT22;33618;49.972;8.242;2023-02-04T15:05:00;14.80;84.80
47857;DHT22;33618;49.972;8.242;2023-02-04T15:07:27;14.30;85.30
47857;DHT22;33618;49.972;8.242;2023-02-04T15:09:54;14.20;86.30
47857;DHT22;33618;49.972;8.242;2023-02-04T15:12:21;13.90;86.40
47857;DHT22;33618;49.972;8.242;2023-02-04T15:14:48;13.50;86.40
47857;DHT22;33618;49.972;8.242;2023-02-04T15:17:15;13.10;87.00
47857;DHT22;33618;49.972;8.242;2023-02-04T15:19:42;13.00;88.20
47857;DHT22;33618;49.972;8.242;2023-02-04T15:22:09;12.70;87.10
47857;DHT22;33618;49.972;8.242;2023-02-04T15:24:38;12.40;88.60
47857;DHT22;33618;49.972;8.242;2023-02-04T15:27:05;12.20;89.40
47857;DHT22;33618;49.972;8.242;2023-02-04T15:29:32;12.10;90.40
47857;DHT22;33618;49.972;8.242;2023-02-04T15:31:59;11.80;90.00
47857;DHT22;33618;49.972;8.242;2023-02-04T15:34:26;11.60;90.70
47857;DHT22;33618;49.972;8.242;2023-02-04T15:36:53;11.50;90.30
47857;DHT22;33618;49.972;8.242;2023-02-04T15:39:20;11.50;90.80
47857;DHT22;33618;49.972;8.242;2023-02-04T15:41:47;11.40;91.30
47857;DHT22;33618;49.972;8.242;2023-02-04T15:44:14;11.30;92.00
47857;DHT22;33618;49.972;8.242;2023-02-04T15:46:41;11.20;92.60
47857;DHT22;33618;49.972;8.242;2023-02-04T15:49:08;11.10;93.50
47857;DHT22;33618;49.972;8.242;2023-02-04T15:51:35;11.00;93.30
47857;DHT22;33618;49.972;8.242;2023-02-04T15:54:02;10.90;93.80
47857;DHT22;33618;49.972;8.242;2023-02-04T15:56:30;10.60;94.10
47857;DHT22;33618;49.972;8.242;2023-02-04T15:58:57;10.60;94.20
47857;DHT22;33618;49.972;8.242;2023-02-04T16:01:27;10.60;94.30
47857;DHT22;33618;49.972;8.242;2023-02-04T16:03:54;10.60;94.10
47857;DHT22;33618;49.972;8.242;2023-02-04T16:06:23;10.60;94.70
47857;DHT22;33618;49.972;8.242;2023-02-04T16:08:50;10.40;93.80
47857;DHT22;33618;49.972;8.242;2023-02-04T16:11:18;10.30;94.60
47857;DHT22;33618;49.972;8.242;2023-02-04T16:13:45;10.20;96.10
47857;DHT22;33618;49.972;8.242;2023-02-04T16:16:11;10.10;96.10
47857;DHT22;33618;49.972;8.242;2023-02-04T16:18:38;10.00;95.50
47857;DHT22;33618;49.972;8.242;2023-02-04T16:21:06;9.80;95.00